sensor_id;sensor_type;location;lat;lon;timestamp;pressure;altitude;pressure_sealevel;temperature
34310;BMP280;61664;48.112;11.662;2023-03-14T00:00:14;94042.13;;;15.00
34310;BMP280;61664;48.112;11.662;2023-03-14T00:02:41;94012.75;;;14.89
34310;BMP280;61664;48.112;11.662;2023-03-14T00:05:09;94036.16;;;14.94
34310;BMP280;61664;48.112;11.662;2023-03-14T00:07:38;94039.75;;;14.97
34310;BMP280;61664;48.112;11.662;2023-03-14T00:10:10;94028.28;;;14.96
34310;BMP280;61664;48.112;11.662;2023-03-14T00:12:38;94021.88;;;14.99
34310;BMP280;61664;48.112;11.662;2023-03-14T00:15:06;94038.94;;;15.02
34310;BMP280;61664;48.112;11.662;2023-03-14T00:17:35;94057.25;;;15.03
34310;BMP280;61664;48.112;11.662;2023-03-14T00:20:05;94060.03;;;14.98
34310;BMP280;61664;48.112;11.662;2023-03-14T00:22:35;94053.81;;;15.03
34310;BMP280;61664;48.112;11.662;2023-03-14T00:25:04;94038.41;;;15.03
34310;BMP280;61664;48.112;11.662;2023-03-14T00:27:32;94012.56;;;15.00
34310;BMP280;61664;48.112;11.662;2023-03-14T00:29:59;94025.78;;;15.12
34310;BMP280;61664;48.112;11.662;2023-03-14T00:32:26;94020.59;;;15.14
34310;BMP280;61664;48.112;11.662;2023-03-14T00:34:53;94013.59;;;15.11
34310;BMP280;61664;48.112;11.662;2023-03-14T00:37:20;94022.66;;;15.08
34310;BMP280;61664;48.112;11.662;2023-03-14T00:39:47;94014.22;;;15.03
34310;BMP280;61664;48.112;11.662;2023-03-14T00:42:14;94017.84;;;15.06
34310;BMP280;61664;48.112;11.662;2023-03-14T00:44:41;94002.97;;;14.92
34310;BMP280;61664;48.112;11.662;2023-03-14T00:47:08;94015.56;;;14.97
34310;BMP280;61664;48.112;11.662;2023-03-14T00:49:35;94038.22;;;15.01
34310;BMP280;61664;48.112;11.662;2023-03-14T00:52:02;94022.16;;;14.96
34310;BMP280;61664;48.112;11.662;2023-03-14T00:54:29;94036.66;;;15.06
34310;BMP280;61664;48.112;11.662;2023-03-14T00:56:55;94032.19;;;14.95
34310;BMP280;61664;48.112;11.662;2023-03-14T00:59:22;94035.72;;;15.03
34310;BMP280;61664;48.112;11.662;2023-03-14T01:01:49;94047.94;;;15.05
34310;BMP280;61664;48.112;11.662;2023-03-14T01:04:16;94057.34;;;14.98
34310;BMP280;61664;48.112;11.662;2023-03-14T01:06:43;94062.94;;;14.87
34310;BMP280;61664;48.112;11.662;2023-03-14T01:09:10;94071.72;;;14.74
34310;BMP280;61664;48.112;11.662;2023-03-14T01:11:37;94085.75;;;14.54
34310;BMP280;61664;48.112;11.662;2023-03-14T01:14:04;94080.78;;;14.31
34310;BMP280;61664;48.112;11.662;2023-03-14T01:16:33;94078.44;;;14.09
34310;BMP280;61664;48.112;11.662;2023-03-14T01:19:02;94070.66;;;13.92
34310;BMP280;61664;48.112;11.662;2023-03-14T01:21:32;94084.34;;;13.89
34310;BMP280;61664;48.112;11.662;2023-03-14T01:24:02;94092.78;;;13.80
34310;BMP280;61664;48.112;11.662;2023-03-14T01:26:33;94083.22;;;13.66
34310;BMP280;61664;48.112;11.662;2023-03-14T01:29:01;94072.34;;;13.39
34310;BMP280;61664;48.112;11.662;2023-03-14T01:31:28;94078.84;;;13.25
34310;BMP280;61664;48.112;11.662;2023-03-14T01:33:55;94078.44;;;13.21
34310;BMP280;61664;48.112;11.662;2023-03-14T01:36:22;94082.75;;;13.05
34310;BMP280;61664;48.112;11.662;2023-03-14T01:38:49;94071.44;;;12.94
34310;BMP280;61664;48.112;11.662;2023-03-14T01:41:23;94089.63;;;13.01
34310;BMP280;61664;48.112;11.662;2023-03-14T01:43:50;94083.59;;;12.95
34310;BMP280;61664;48.112;11.662;2023-03-14T01:49:29;94083.78;;;12.97
34310;BMP280;61664;48.112;11.662;2023-03-14T01:52:18;94075.06;;;12.90
34310;BMP280;61664;48.112;11.662;2023-03-14T01:54:54;94074.31;;;12.96
34310;BMP280;61664;48.112;11.662;2023-03-14T01:57:37;94086.66;;;13.04
34310;BMP280;61664;48.112;11.662;2023-03-14T02:00:21;94087.38;;;13.05
34310;BMP280;61664;48.112;11.662;2023-03-14T02:02:54;94089.38;;;12.99
34310;BMP280;61664;48.112;11.662;2023-03-14T02:05:31;94095.53;;;12.94
34310;BMP280;61664;48.112;11.662;2023-03-14T02:08:01;94095.59;;;12.88
34310;BMP280;61664;48.112;11.662;2023-03-14T02:13:03;94091.53;;;12.81
34310;BMP280;61664;48.112;11.662;2023-03-14T02:15:31;94099.41;;;12.74
34310;BMP280;61664;48.112;11.662;2023-03-14T02:18:01;94089.19;;;12.72
34310;BMP280;61664;48.112;11.662;2023-03-14T02:26:39;94086.84;;;12.33
34310;BMP280;61664;48.112;11.662;2023-03-14T02:29:07;94090.56;;;12.25
34310;BMP280;61664;48.112;11.662;2023-03-14T02:31:34;94073.59;;;12.16
34310;BMP280;61664;48.112;11.662;2023-03-14T02:34:02;94057.81;;;12.07
34310;BMP280;61664;48.112;11.662;2023-03-14T02:36:30;94045.47;;;12.04
34310;BMP280;61664;48.112;11.662;2023-03-14T02:39:11;94016.63;;;11.86
34310;BMP280;61664;48.112;11.662;2023-03-14T02:41:42;94010.78;;;11.87
34310;BMP280;61664;48.112;11.662;2023-03-14T02:44:12;93999.41;;;11.81
34310;BMP280;61664;48.112;11.662;2023-03-14T02:46:38;93989.19;;;11.80
34310;BMP280;61664;48.112;11.662;2023-03-14T02:49:10;93984.03;;;11.87
34310;BMP280;61664;48.112;11.662;2023-03-14T02:51:41;93960.47;;;11.80
34310;BMP280;61664;48.112;11.662;2023-03-14T02:54:09;93947.09;;;11.80
34310;BMP280;61664;48.112;11.662;2023-03-14T02:56:36;93949.47;;;11.89
34310;BMP280;61664;48.112;11.662;2023-03-14T02:59:05;93945.41;;;11.83
34310;BMP280;61664;48.112;11.662;2023-03-14T03:01:33;93946.13;;;11.83
34310;BMP280;61664;48.112;11.662;2023-03-14T03:04:00;93934.00;;;11.77
34310;BMP280;61664;48.112;11.662;2023-03-14T03:06:27;93943.94;;;11.82
34310;BMP280;61664;48.112;11.662;2023-03-14T03:08:54;93943.25;;;11.76
34310;BMP280;61664;48.112;11.662;2023-03-14T03:11:21;93942.03;;;11.77
34310;BMP280;61664;48.112;11.662;2023-03-14T03:13:48;93935.53;;;11.67
34310;BMP280;61664;48.112;11.662;2023-03-14T03:16:14;93922.22;;;11.61
34310;BMP280;61664;48.112;11.662;2023-03-14T03:18:42;93917.13;;;11.58
34310;BMP280;61664;48.112;11.662;2023-03-14T03:21:08;93925.63;;;11.62
34310;BMP280;61664;48.112;11.662;2023-03-14T03:23:36;93940.28;;;11.49
34310;BMP280;61664;48.112;11.662;2023-03-14T03:26:03;93918.72;;;11.42
34310;BMP280;61664;48.112;11.662;2023-03-14T03:28:30;93917.72;;;11.45
34310;BMP280;61664;48.112;11.662;2023-03-14T03:30:57;93887.25;;;11.24
34310;BMP280;61664;48.112;11.662;2023-03-14T03:33:24;93923.78;;;11.45
34310;BMP280;61664;48.112;11.662;2023-03-14T03:35:51;93911.91;;;11.41
34310;BMP280;61664;48.112;11.662;2023-03-14T03:38:18;93915.81;;;11.40
34310;BMP280;61664;48.112;11.662;2023-03-14T03:40:46;93925.97;;;11.47
34310;BMP280;61664;48.112;11.662;2023-03-14T03:43:13;93912.13;;;11.43
34310;BMP280;61664;48.112;11.662;2023-03-14T03:45:40;93918.22;;;11.43
34310;BMP280;61664;48.112;11.662;2023-03-14T03:48:07;93918.94;;;11.44
34310;BMP280;61664;48.112;11.662;2023-03-14T03:50:34;93916.03;;;11.42
34310;BMP280;61664;48.112;11.662;2023-03-14T03:53:01;93902.00;;;11.30
34310;BMP280;61664;48.112;11.662;2023-03-14T03:55:28;93920.00;;;11.30
34310;BMP280;61664;48.112;11.662;2023-03-14T03:57:55;93923.47;;;11.25
34310;BMP280;61664;48.112;11.662;2023-03-14T04:00:22;93931.69;;;11.27
34310;BMP280;61664;48.112;11.662;2023-03-14T04:02:49;93915.00;;;11.15
34310;BMP280;61664;48.112;11.662;2023-03-14T04:05:16;93922.25;;;11.20
34310;BMP280;61664;48.112;11.662;2023-03-14T04:07:43;93923.94;;;11.17
34310;BMP280;61664;48.112;11.662;2023-03-14T04:10:10;93915.22;;;11.17
34310;BMP280;61664;48.112;11.662;2023-03-14T04:12:37;93900.94;;;11.09
34310;BMP280;61664;48.112;11.662;2023-03-14T04:15:05;93911.88;;;11.11
34310;BMP280;61664;48.112;11.662;2023-03-14T04:17:32;93917.22;;;11.11
34310;BMP280;61664;48.112;11.662;2023-03-14T04:19:58;93898.81;;;10.96
34310;BMP280;61664;48.112;11.662;2023-03-14T04:22:26;93909.47;;;11.02
34310;BMP280;61664;48.112;11.662;2023-03-14T04:24:52;93916.78;;;11.01
34310;BMP280;61664;48.112;11.662;2023-03-14T04:27:20;93897.88;;;10.94
34310;BMP280;61664;48.112;11.662;2023-03-14T04:29:47;93882.81;;;10.91
34310;BMP280;61664;48.112;11.662;2023-03-14T04:32:13;93870.44;;;10.87
34310;BMP280;61664;48.112;11.662;2023-03-14T04:34:41;93872.38;;;10.93
34310;BMP280;61664;48.112;11.662;2023-03-14T04:37:08;93872.34;;;10.98
34310;BMP280;61664;48.112;11.662;2023-03-14T04:39:35;93849.59;;;10.86
34310;BMP280;61664;48.112;11.662;2023-03-14T04:42:02;93862.38;;;10.99
34310;BMP280;61664;48.112;11.662;2023-03-14T04:44:29;93858.31;;;10.92
34310;BMP280;61664;48.112;11.662;2023-03-14T04:46:56;93850.28;;;10.86
34310;BMP280;61664;48.112;11.662;2023-03-14T04:49:23;93860.78;;;10.84
34310;BMP280;61664;48.112;11.662;2023-03-14T04:51:50;93863.88;;;10.88
34310;BMP280;61664;48.112;11.662;2023-03-14T04:54:18;93853.47;;;10.85
34310;BMP280;61664;48.112;11.662;2023-03-14T04:56:44;93857.09;;;10.87
34310;BMP280;61664;48.112;11.662;2023-03-14T04:59:11;93847.84;;;10.88
34310;BMP280;61664;48.112;11.662;2023-03-14T05:01:38;93855.56;;;10.98
34310;BMP280;61664;48.112;11.662;2023-03-14T05:04:05;93851.94;;;10.95
34310;BMP280;61664;48.112;11.662;2023-03-14T05:06:32;93852.41;;;10.99
34310;BMP280;61664;48.112;11.662;2023-03-14T05:08:59;93851.91;;;11.01
34310;BMP280;61664;48.112;11.662;2023-03-14T05:11:26;93833.97;;;10.96
34310;BMP280;61664;48.112;11.662;2023-03-14T05:13:52;93848.78;;;10.97
34310;BMP280;61664;48.112;11.662;2023-03-14T05:16:19;93850.66;;;11.07
34310;BMP280;61664;48.112;11.662;2023-03-14T05:18:46;93844.09;;;11.08
34310;BMP280;61664;48.112;11.662;2023-03-14T05:21:13;93827.13;;;11.00
34310;BMP280;61664;48.112;11.662;2023-03-14T05:23:40;93825.88;;;11.07
34310;BMP280;61664;48.112;11.662;2023-03-14T05:26:07;93835.56;;;11.10
34310;BMP280;61664;48.112;11.662;2023-03-14T05:28:34;93833.16;;;11.12
34310;BMP280;61664;48.112;11.662;2023-03-14T05:31:01;93837.25;;;11.13
34310;BMP280;61664;48.112;11.662;2023-03-14T05:33:32;93846.72;;;11.14
34310;BMP280;61664;48.112;11.662;2023-03-14T05:38:26;93838.22;;;11.10
34310;BMP280;61664;48.112;11.662;2023-03-14T05:40:53;93842.84;;;11.15
34310;BMP280;61664;48.112;11.662;2023-03-14T05:43:20;93844.72;;;11.20
34310;BMP280;61664;48.112;11.662;2023-03-14T05:45:47;93844.97;;;11.22
34310;BMP280;61664;48.112;11.662;2023-03-14T05:48:14;93839.88;;;11.18
34310;BMP280;61664;48.112;11.662;2023-03-14T05:50:40;93833.59;;;11.16
34310;BMP280;61664;48.112;11.662;2023-03-14T05:53:07;93835.97;;;11.19
34310;BMP280;61664;48.112;11.662;2023-03-14T05:55:34;93826.50;;;11.18
34310;BMP280;61664;48.112;11.662;2023-03-14T05:58:01;93824.81;;;11.21
34310;BMP280;61664;48.112;11.662;2023-03-14T06:00:28;93818.97;;;11.23
34310;BMP280;61664;48.112;11.662;2023-03-14T06:02:55;93822.06;;;11.32
34310;BMP280;61664;48.112;11.662;2023-03-14T06:05:22;93813.25;;;11.37
34310;BMP280;61664;48.112;11.662;2023-03-14T06:07:49;93819.28;;;11.43
34310;BMP280;61664;48.112;11.662;2023-03-14T06:10:16;93816.84;;;11.45
34310;BMP280;61664;48.112;11.662;2023-03-14T06:12:42;93832.34;;;11.52
34310;BMP280;61664;48.112;11.662;2023-03-14T06:15:10;93837.84;;;11.60
34310;BMP280;61664;48.112;11.662;2023-03-14T06:17:37;93817.75;;;11.53
34310;BMP280;61664;48.112;11.662;2023-03-14T06:20:04;93812.59;;;11.55
34310;BMP280;61664;48.112;11.662;2023-03-14T06:22:31;93823.44;;;11.69
34310;BMP280;61664;48.112;11.662;2023-03-14T06:24:58;93804.56;;;11.55
34310;BMP280;61664;48.112;11.662;2023-03-14T06:27:25;93820.75;;;11.69
34310;BMP280;61664;48.112;11.662;2023-03-14T06:29:52;93832.06;;;11.80
34310;BMP280;61664;48.112;11.662;2023-03-14T06:32:19;93822.34;;;11.83
34310;BMP280;61664;48.112;11.662;2023-03-14T06:34:47;93803.59;;;11.83
34310;BMP280;61664;48.112;11.662;2023-03-14T06:37:14;93811.72;;;11.96
34310;BMP280;61664;48.112;11.662;2023-03-14T06:39:41;93783.00;;;11.97
34310;BMP280;61664;48.112;11.662;2023-03-14T06:42:08;93783.59;;;12.08
34310;BMP280;61664;48.112;11.662;2023-03-14T06:44:35;93780.16;;;12.13
34310;BMP280;61664;48.112;11.662;2023-03-14T06:47:02;93788.19;;;12.32
34310;BMP280;61664;48.112;11.662;2023-03-14T06:49:29;93781.28;;;12.37
34310;BMP280;61664;48.112;11.662;2023-03-14T06:51:56;93803.25;;;12.54
34310;BMP280;61664;48.112;11.662;2023-03-14T06:54:23;93809.22;;;12.60
34310;BMP280;61664;48.112;11.662;2023-03-14T06:56:49;93805.34;;;12.61
34310;BMP280;61664;48.112;11.662;2023-03-14T06:59:16;93807.66;;;12.51
34310;BMP280;61664;48.112;11.662;2023-03-14T07:01:43;93817.38;;;12.49
34310;BMP280;61664;48.112;11.662;2023-03-14T07:04:10;93819.25;;;12.41
34310;BMP280;61664;48.112;11.662;2023-03-14T07:06:37;93805.75;;;12.28
34310;BMP280;61664;48.112;11.662;2023-03-14T07:09:06;93804.59;;;12.23
34310;BMP280;61664;48.112;11.662;2023-03-14T07:11:33;93822.50;;;12.34
34310;BMP280;61664;48.112;11.662;2023-03-14T07:14:01;93818.59;;;12.35
34310;BMP280;61664;48.112;11.662;2023-03-14T07:16:27;93820.22;;;12.38
34310;BMP280;61664;48.112;11.662;2023-03-14T07:18:58;93824.59;;;12.41
34310;BMP280;61664;48.112;11.662;2023-03-14T07:21:25;93816.56;;;12.41
34310;BMP280;61664;48.112;11.662;2023-03-14T07:23:52;93815.59;;;12.38
34310;BMP280;61664;48.112;11.662;2023-03-14T07:26:19;93823.56;;;12.44
34310;BMP280;61664;48.112;11.662;2023-03-14T07:28:46;93818.13;;;12.49
34310;BMP280;61664;48.112;11.662;2023-03-14T07:31:13;93824.16;;;12.55
34310;BMP280;61664;48.112;11.662;2023-03-14T07:33:40;93822.88;;;12.62
34310;BMP280;61664;48.112;11.662;2023-03-14T07:36:07;93831.00;;;12.70
34310;BMP280;61664;48.112;11.662;2023-03-14T07:38:35;93815.00;;;12.64
34310;BMP280;61664;48.112;11.662;2023-03-14T07:41:05;93822.09;;;12.80
34310;BMP280;61664;48.112;11.662;2023-03-14T07:43:33;93820.28;;;12.88
34310;BMP280;61664;48.112;11.662;2023-03-14T07:46:01;93818.66;;;12.99
34310;BMP280;61664;48.112;11.662;2023-03-14T07:48:28;93794.84;;;12.95
34310;BMP280;61664;48.112;11.662;2023-03-14T07:50:56;93797.28;;;13.12
34310;BMP280;61664;48.112;11.662;2023-03-14T07:53:24;93799.06;;;13.22
34310;BMP280;61664;48.112;11.662;2023-03-14T07:55:53;93804.13;;;13.39
34310;BMP280;61664;48.112;11.662;2023-03-14T07:58:21;93804.25;;;13.47
34310;BMP280;61664;48.112;11.662;2023-03-14T08:00:52;93802.72;;;13.51
34310;BMP280;61664;48.112;11.662;2023-03-14T08:03:19;93786.69;;;13.46
34310;BMP280;61664;48.112;11.662;2023-03-14T08:05:50;93807.66;;;13.60
34310;BMP280;61664;48.112;11.662;2023-03-14T08:08:18;93791.13;;;13.56
34310;BMP280;61664;48.112;11.662;2023-03-14T08:10:46;93796.50;;;13.56
34310;BMP280;61664;48.112;11.662;2023-03-14T08:13:13;93793.19;;;13.50
34310;BMP280;61664;48.112;11.662;2023-03-14T08:15:40;93811.56;;;13.59
34310;BMP280;61664;48.112;11.662;2023-03-14T08:18:08;93801.16;;;13.56
34310;BMP280;61664;48.112;11.662;2023-03-14T08:20:36;93801.88;;;13.70
34310;BMP280;61664;48.112;11.662;2023-03-14T08:23:04;93807.88;;;13.76
34310;BMP280;61664;48.112;11.662;2023-03-14T08:25:31;93808.28;;;13.80
34310;BMP280;61664;48.112;11.662;2023-03-14T08:27:59;93811.19;;;13.82
34310;BMP280;61664;48.112;11.662;2023-03-14T08:30:25;93806.84;;;13.79
34310;BMP280;61664;48.112;11.662;2023-03-14T08:32:52;93807.97;;;13.83
34310;BMP280;61664;48.112;11.662;2023-03-14T08:35:19;93817.06;;;13.93
34310;BMP280;61664;48.112;11.662;2023-03-14T08:37:46;93805.16;;;13.89
34310;BMP280;61664;48.112;11.662;2023-03-14T08:40:13;93816.53;;;13.95
34310;BMP280;61664;48.112;11.662;2023-03-14T08:42:41;93824.50;;;14.01
34310;BMP280;61664;48.112;11.662;2023-03-14T08:45:11;93831.06;;;14.00
34310;BMP280;61664;48.112;11.662;2023-03-14T08:47:39;93844.59;;;14.07
34310;BMP280;61664;48.112;11.662;2023-03-14T08:50:07;93840.09;;;14.02
34310;BMP280;61664;48.112;11.662;2023-03-14T08:52:37;93837.47;;;14.10
34310;BMP280;61664;48.112;11.662;2023-03-14T08:55:08;93837.28;;;14.08
34310;BMP280;61664;48.112;11.662;2023-03-14T08:57:35;93845.53;;;14.10
34310;BMP280;61664;48.112;11.662;2023-03-14T09:00:05;93832.25;;;14.04
34310;BMP280;61664;48.112;11.662;2023-03-14T09:02:37;93848.13;;;14.15
34310;BMP280;61664;48.112;11.662;2023-03-14T09:05:05;93849.38;;;14.14
34310;BMP280;61664;48.112;11.662;2023-03-14T09:07:32;93857.03;;;14.23
34310;BMP280;61664;48.112;11.662;2023-03-14T09:09:59;93854.72;;;14.27
34310;BMP280;61664;48.112;11.662;2023-03-14T09:12:26;93857.81;;;14.31
34310;BMP280;61664;48.112;11.662;2023-03-14T09:14:53;93852.75;;;14.41
34310;BMP280;61664;48.112;11.662;2023-03-14T09:17:20;93853.16;;;14.45
34310;BMP280;61664;48.112;11.662;2023-03-14T09:19:47;93848.28;;;14.44
34310;BMP280;61664;48.112;11.662;2023-03-14T09:22:14;93850.25;;;14.43
34310;BMP280;61664;48.112;11.662;2023-03-14T09:24:41;93856.72;;;14.48
34310;BMP280;61664;48.112;11.662;2023-03-14T09:27:08;93848.88;;;14.50
34310;BMP280;61664;48.112;11.662;2023-03-14T09:29:35;93845.59;;;14.44
34310;BMP280;61664;48.112;11.662;2023-03-14T09:32:02;93856.03;;;14.47
34310;BMP280;61664;48.112;11.662;2023-03-14T09:34:30;93849.94;;;14.47
34310;BMP280;61664;48.112;11.662;2023-03-14T09:36:57;93843.53;;;14.37
34310;BMP280;61664;48.112;11.662;2023-03-14T09:39:24;93844.47;;;14.39
34310;BMP280;61664;48.112;11.662;2023-03-14T09:41:52;93831.56;;;14.38
34310;BMP280;61664;48.112;11.662;2023-03-14T09:44:33;93842.75;;;14.42
34310;BMP280;61664;48.112;11.662;2023-03-14T09:47:06;93837.84;;;14.40
34310;BMP280;61664;48.112;11.662;2023-03-14T09:49:41;93833.53;;;14.37
34310;BMP280;61664;48.112;11.662;2023-03-14T09:54:59;93836.19;;;14.37
34310;BMP280;61664;48.112;11.662;2023-03-14T09:57:28;93825.34;;;14.43
34310;BMP280;61664;48.112;11.662;2023-03-14T10:00:02;93809.66;;;14.47
34310;BMP280;61664;48.112;11.662;2023-03-14T10:02:40;93823.63;;;14.66
34310;BMP280;61664;48.112;11.662;2023-03-14T10:05:17;93819.25;;;14.76
34310;BMP280;61664;48.112;11.662;2023-03-14T10:07:44;93821.13;;;14.81
34310;BMP280;61664;48.112;11.662;2023-03-14T10:10:19;93809.84;;;14.83
34310;BMP280;61664;48.112;11.662;2023-03-14T10:12:55;93809.38;;;14.92
34310;BMP280;61664;48.112;11.662;2023-03-14T10:15:32;93819.47;;;14.99
34310;BMP280;61664;48.112;11.662;2023-03-14T10:18:02;93823.78;;;15.02
34310;BMP280;61664;48.112;11.662;2023-03-14T10:20:33;93812.91;;;15.08
34310;BMP280;61664;48.112;11.662;2023-03-14T10:26:07;93807.25;;;15.19
34310;BMP280;61664;48.112;11.662;2023-03-14T10:28:47;93811.31;;;15.33
34310;BMP280;61664;48.112;11.662;2023-03-14T10:31:15;93803.34;;;15.48
34310;BMP280;61664;48.112;11.662;2023-03-14T10:33:58;93801.69;;;15.73
34310;BMP280;61664;48.112;11.662;2023-03-14T10:36:32;93803.56;;;16.22
34310;BMP280;61664;48.112;11.662;2023-03-14T10:39:26;93802.97;;;17.05
34310;BMP280;61664;48.112;11.662;2023-03-14T10:44:56;93804.47;;;17.77
34310;BMP280;61664;48.112;11.662;2023-03-14T10:47:26;93799.22;;;17.86
34310;BMP280;61664;48.112;11.662;2023-03-14T10:49:56;93798.63;;;18.11
34310;BMP280;61664;48.112;11.662;2023-03-14T10:52:28;93798.47;;;18.41
34310;BMP280;61664;48.112;11.662;2023-03-14T10:55:12;93800.00;;;18.52
34310;BMP280;61664;48.112;11.662;2023-03-14T10:57:41;93803.63;;;18.47
34310;BMP280;61664;48.112;11.662;2023-03-14T11:00:22;93802.56;;;18.10
34310;BMP280;61664;48.112;11.662;2023-03-14T11:05:58;93814.63;;;17.38
34310;BMP280;61664;48.112;11.662;2023-03-14T11:08:51;93813.22;;;17.07
34310;BMP280;61664;48.112;11.662;2023-03-14T11:11:25;93817.16;;;16.98
34310;BMP280;61664;48.112;11.662;2023-03-14T11:14:23;93820.41;;;16.89
34310;BMP280;61664;48.112;11.662;2023-03-14T11:17:10;93825.59;;;16.79
34310;BMP280;61664;48.112;11.662;2023-03-14T11:25:25;93820.53;;;16.61
34310;BMP280;61664;48.112;11.662;2023-03-14T11:31:29;93810.50;;;16.76
34310;BMP280;61664;48.112;11.662;2023-03-14T11:37:21;93789.13;;;16.94
34310;BMP280;61664;48.112;11.662;2023-03-14T11:40:13;93799.38;;;17.10
34310;BMP280;61664;48.112;11.662;2023-03-14T11:42:44;93785.50;;;17.21
34310;BMP280;61664;48.112;11.662;2023-03-14T11:50:44;93788.19;;;17.52
34310;BMP280;61664;48.112;11.662;2023-03-14T11:53:39;93791.44;;;17.43
34310;BMP280;61664;48.112;11.662;2023-03-14T11:56:29;93762.84;;;17.17
34310;BMP280;61664;48.112;11.662;2023-03-14T11:59:05;93762.69;;;17.07
34310;BMP280;61664;48.112;11.662;2023-03-14T12:02:12;93778.13;;;17.07
34310;BMP280;61664;48.112;11.662;2023-03-14T12:07:50;93771.66;;;17.10
34310;BMP280;61664;48.112;11.662;2023-03-14T12:10:24;93777.97;;;17.20
34310;BMP280;61664;48.112;11.662;2023-03-14T12:12:52;93771.28;;;17.29
34310;BMP280;61664;48.112;11.662;2023-03-14T12:15:21;93763.03;;;17.34
34310;BMP280;61664;48.112;11.662;2023-03-14T12:17:55;93783.66;;;17.47
34310;BMP280;61664;48.112;11.662;2023-03-14T12:20:26;93777.00;;;17.48
34310;BMP280;61664;48.112;11.662;2023-03-14T12:22:56;93781.50;;;17.45
34310;BMP280;61664;48.112;11.662;2023-03-14T12:25:32;93774.38;;;17.40
34310;BMP280;61664;48.112;11.662;2023-03-14T12:35:50;93767.34;;;16.99
34310;BMP280;61664;48.112;11.662;2023-03-14T12:41:23;93787.72;;;16.11
34310;BMP280;61664;48.112;11.662;2023-03-14T12:43:51;93780.69;;;16.00
34310;BMP280;61664;48.112;11.662;2023-03-14T12:51:41;93774.50;;;16.43
34310;BMP280;61664;48.112;11.662;2023-03-14T12:57:01;93786.94;;;16.77
34310;BMP280;61664;48.112;11.662;2023-03-14T12:59:50;93783.38;;;16.82
34310;BMP280;61664;48.112;11.662;2023-03-14T13:02:37;93811.06;;;17.05
34310;BMP280;61664;48.112;11.662;2023-03-14T13:05:19;93783.91;;;17.18
34310;BMP280;61664;48.112;11.662;2023-03-14T13:13:09;93805.47;;;17.18
34310;BMP280;61664;48.112;11.662;2023-03-14T13:15:47;93796.69;;;17.03
34310;BMP280;61664;48.112;11.662;2023-03-14T13:18:48;93800.81;;;16.89
34310;BMP280;61664;48.112;11.662;2023-03-14T13:21:20;93795.41;;;16.96
34310;BMP280;61664;48.112;11.662;2023-03-14T13:24:00;93786.25;;;17.14
34310;BMP280;61664;48.112;11.662;2023-03-14T13:26:42;93795.22;;;17.40
34310;BMP280;61664;48.112;11.662;2023-03-14T13:29:32;93804.72;;;17.48
34310;BMP280;61664;48.112;11.662;2023-03-14T13:32:12;93820.94;;;17.41
34310;BMP280;61664;48.112;11.662;2023-03-14T13:34:42;93820.97;;;17.26
34310;BMP280;61664;48.112;11.662;2023-03-14T13:39:54;93843.59;;;16.92
34310;BMP280;61664;48.112;11.662;2023-03-14T13:42:28;93870.28;;;16.60
34310;BMP280;61664;48.112;11.662;2023-03-14T13:44:57;93840.19;;;16.25
34310;BMP280;61664;48.112;11.662;2023-03-14T13:47:25;93858.78;;;16.00
34310;BMP280;61664;48.112;11.662;2023-03-14T13:49:53;93851.13;;;15.84
34310;BMP280;61664;48.112;11.662;2023-03-14T13:52:35;93866.63;;;15.70
34310;BMP280;61664;48.112;11.662;2023-03-14T13:55:05;93910.47;;;15.50
34310;BMP280;61664;48.112;11.662;2023-03-14T14:00:26;93912.34;;;15.00
34310;BMP280;61664;48.112;11.662;2023-03-14T14:02:56;93905.75;;;14.88
34310;BMP280;61664;48.112;11.662;2023-03-14T14:05:28;93902.28;;;14.66
34310;BMP280;61664;48.112;11.662;2023-03-14T14:07:56;93901.84;;;14.42
34310;BMP280;61664;48.112;11.662;2023-03-14T14:10:26;93949.78;;;14.11
34310;BMP280;61664;48.112;11.662;2023-03-14T14:13:03;93926.38;;;13.80
34310;BMP280;61664;48.112;11.662;2023-03-14T14:15:41;93938.03;;;13.50
34310;BMP280;61664;48.112;11.662;2023-03-14T14:18:17;93948.69;;;13.24
34310;BMP280;61664;48.112;11.662;2023-03-14T14:20:47;93961.44;;;12.99
34310;BMP280;61664;48.112;11.662;2023-03-14T14:23:19;93934.84;;;12.64
34310;BMP280;61664;48.112;11.662;2023-03-14T14:25:52;93954.13;;;12.38
34310;BMP280;61664;48.112;11.662;2023-03-14T14:28:31;93964.31;;;12.15
34310;BMP280;61664;48.112;11.662;2023-03-14T14:31:23;93988.84;;;11.95
34310;BMP280;61664;48.112;11.662;2023-03-14T14:34:03;93974.72;;;11.64
34310;BMP280;61664;48.112;11.662;2023-03-14T14:36:41;93994.38;;;11.31
34310;BMP280;61664;48.112;11.662;2023-03-14T14:39:25;94007.31;;;11.16
34310;BMP280;61664;48.112;11.662;2023-03-14T14:41:53;94017.38;;;10.87
34310;BMP280;61664;48.112;11.662;2023-03-14T14:44:35;94016.94;;;10.72
34310;BMP280;61664;48.112;11.662;2023-03-14T14:47:04;94040.25;;;10.66
34310;BMP280;61664;48.112;11.662;2023-03-14T14:49:33;94028.38;;;10.56
34310;BMP280;61664;48.112;11.662;2023-03-14T14:52:16;94052.94;;;10.43
34310;BMP280;61664;48.112;11.662;2023-03-14T14:54:58;94038.13;;;10.26
34310;BMP280;61664;48.112;11.662;2023-03-14T14:57:30;94050.75;;;10.14
34310;BMP280;61664;48.112;11.662;2023-03-14T15:00:05;94049.53;;;10.09
34310;BMP280;61664;48.112;11.662;2023-03-14T15:02:46;94046.13;;;10.03
34310;BMP280;61664;48.112;11.662;2023-03-14T15:05:23;94067.94;;;10.07
34310;BMP280;61664;48.112;11.662;2023-03-14T15:07:51;94066.97;;;9.99
34310;BMP280;61664;48.112;11.662;2023-03-14T15:10:22;94078.13;;;9.98
34310;BMP280;61664;48.112;11.662;2023-03-14T15:12:50;94079.06;;;9.89
34310;BMP280;61664;48.112;11.662;2023-03-14T15:15:18;94091.44;;;9.86
34310;BMP280;61664;48.112;11.662;2023-03-14T15:17:45;94079.09;;;9.83
34310;BMP280;61664;48.112;11.662;2023-03-14T15:20:15;94083.94;;;9.91
34310;BMP280;61664;48.112;11.662;2023-03-14T15:22:43;94084.44;;;10.00
34310;BMP280;61664;48.112;11.662;2023-03-14T15:25:11;94076.69;;;10.08
34310;BMP280;61664;48.112;11.662;2023-03-14T15:27:58;94115.50;;;10.09
34310;BMP280;61664;48.112;11.662;2023-03-14T15:30:25;94107.25;;;10.12